Lisburn, Pennsylvania
Current Conditions -  °F | °C
As of 7:56 PM on Friday 19 Dec 2014 (Local Time) from KCXY Reporting Station
Clear Clear  
Wind Chill: 26°   Ceiling: Unl
Heat Index: 33°   Visibility: 10mi
Dew Point: 21°   Wind: 8mph
Humidity: 61%   Direction: 290°WNW
Pressure: 30.2"   Gusts: NA
Location:  40.208°N, 77.0098°W
Report Text: KCXY 200056Z 29007KT 10SM CLR 01/M06 A3020 RMK AO2 SLP229 T00061061
Loading
Personal Weather Stations






























Interactive Weather Map New forecast layout! Learn more

10-Day Weather Forecast

Advertisements
Track Severe Weather on mobile